KAL2148 ROAH-RKSI
Flight info
| Callsign | KAL2148 |
|---|---|
| Flight time | 2h 4m |
| Altitude | 33000 |
| Route | CHERY DCT ONC Y579 CHAMP/N0454F350 Y579 RUGMA Y572 CJU Y722 OLMEN |
| Aircraft | A21N/M-SDE2E3FGHIJ1RWXY/LB1 |
Departure
| Time | 2026-05-05 00:41 |
|---|---|
| Airport | Naha International Airport (ROAH) |
Arrival
| Time | 2026-05-05 02:46 |
|---|---|
| Airport | Incheon International Airport (RKSI) |
| Time | Latitude | Longitude | Altitude | Speed | Heading |
|---|---|---|---|---|---|
| 2026-05-05 00:15 | 26.20556 | 127.64932 | 27 ft | 0 kts | 148° |
| 2026-05-05 00:27 | 26.20557 | 127.64931 | 27 ft | 1 kts | 148° |
| 2026-05-05 00:27 | 26.20578 | 127.64917 | 27 ft | 4 kts | 149° |
| 2026-05-05 00:27 | 26.20599 | 127.64903 | 26 ft | 4 kts | 151° |
| 2026-05-05 00:27 | 26.20620 | 127.64898 | 28 ft | 4 kts | 208° |
| 2026-05-05 00:28 | 26.20633 | 127.64918 | 28 ft | 4 kts | 256° |
| 2026-05-05 00:28 | 26.20637 | 127.64943 | 26 ft | 1 kts | 267° |
| 2026-05-05 00:31 | 26.20636 | 127.64931 | 26 ft | 3 kts | 267° |
| 2026-05-05 00:31 | 26.20635 | 127.64901 | 28 ft | 5 kts | 267° |
| 2026-05-05 00:31 | 26.20633 | 127.64861 | 25 ft | 6 kts | 268° |
| 2026-05-05 00:31 | 26.20632 | 127.64812 | 24 ft | 7 kts | 268° |
| 2026-05-05 00:32 | 26.20614 | 127.64761 | 25 ft | 8 kts | 209° |
| 2026-05-05 00:32 | 26.20554 | 127.64746 | 22 ft | 10 kts | 178° |
| 2026-05-05 00:32 | 26.20478 | 127.64751 | 23 ft | 12 kts | 178° |
| 2026-05-05 00:32 | 26.20389 | 127.64755 | 23 ft | 14 kts | 178° |
| 2026-05-05 00:33 | 26.20290 | 127.64760 | 22 ft | 15 kts | 176° |
| 2026-05-05 00:33 | 26.20181 | 127.64766 | 23 ft | 16 kts | 177° |
| 2026-05-05 00:33 | 26.20071 | 127.64771 | 23 ft | 15 kts | 178° |
| 2026-05-05 00:33 | 26.19959 | 127.64776 | 23 ft | 17 kts | 178° |
| 2026-05-05 00:34 | 26.19837 | 127.64781 | 22 ft | 18 kts | 178° |
| 2026-05-05 00:34 | 26.19751 | 127.64785 | 22 ft | 5 kts | 177° |
| 2026-05-05 00:34 | 26.19710 | 127.64788 | 22 ft | 7 kts | 177° |
| 2026-05-05 00:34 | 26.19656 | 127.64791 | 22 ft | 9 kts | 177° |
| 2026-05-05 00:35 | 26.19589 | 127.64794 | 22 ft | 11 kts | 178° |
| 2026-05-05 00:35 | 26.19510 | 127.64797 | 22 ft | 12 kts | 178° |
| 2026-05-05 00:35 | 26.19418 | 127.64802 | 22 ft | 14 kts | 178° |
| 2026-05-05 00:35 | 26.19315 | 127.64806 | 23 ft | 16 kts | 178° |
| 2026-05-05 00:36 | 26.19203 | 127.64812 | 23 ft | 16 kts | 178° |
| 2026-05-05 00:36 | 26.19090 | 127.64817 | 22 ft | 17 kts | 177° |
| 2026-05-05 00:36 | 26.18970 | 127.64823 | 22 ft | 14 kts | 178° |
| 2026-05-05 00:36 | 26.18865 | 127.64827 | 22 ft | 16 kts | 178° |
| 2026-05-05 00:37 | 26.18749 | 127.64833 | 23 ft | 17 kts | 177° |
| 2026-05-05 00:37 | 26.18623 | 127.64839 | 23 ft | 19 kts | 177° |
| 2026-05-05 00:37 | 26.18489 | 127.64845 | 22 ft | 20 kts | 177° |
| 2026-05-05 00:37 | 26.18354 | 127.64852 | 22 ft | 10 kts | 178° |
| 2026-05-05 00:38 | 26.18278 | 127.64847 | 22 ft | 12 kts | 206° |
| 2026-05-05 00:38 | 26.18243 | 127.64764 | 22 ft | 9 kts | 266° |
| 2026-05-05 00:38 | 26.18243 | 127.64761 | 22 ft | 0 kts | 266° |
| 2026-05-05 00:39 | 26.18242 | 127.64744 | 21 ft | 4 kts | 267° |
| 2026-05-05 00:39 | 26.18240 | 127.64702 | 21 ft | 7 kts | 268° |
| 2026-05-05 00:39 | 26.18268 | 127.64656 | 21 ft | 9 kts | 342° |
| 2026-05-05 00:40 | 26.18333 | 127.64647 | 22 ft | 0 kts | 358° |
| 2026-05-05 00:41 | 26.18475 | 127.64640 | 22 ft | 57 kts | 358° |
| 2026-05-05 00:41 | 26.19124 | 127.64609 | 24 ft | 128 kts | 358° |
| 2026-05-05 00:41 | 26.20146 | 127.64529 | 360 ft | 152 kts | 356° |
| 2026-05-05 00:41 | 26.21216 | 127.64442 | 1009 ft | 158 kts | 1° |
| 2026-05-05 00:42 | 26.22325 | 127.64428 | 1716 ft | 160 kts | 2° |
| 2026-05-05 00:42 | 26.23409 | 127.64394 | 2325 ft | 158 kts | 1° |
| 2026-05-05 00:42 | 26.24512 | 127.64350 | 2833 ft | 160 kts | 359° |
| 2026-05-05 00:42 | 26.25645 | 127.64269 | 3202 ft | 171 kts | 348° |
| 2026-05-05 00:43 | 26.26770 | 127.63661 | 3472 ft | 191 kts | 328° |
| 2026-05-05 00:43 | 26.27960 | 127.62858 | 3865 ft | 207 kts | 328° |
| 2026-05-05 00:43 | 26.29246 | 127.62028 | 4346 ft | 220 kts | 328° |
| 2026-05-05 00:43 | 26.30619 | 127.61147 | 4793 ft | 238 kts | 327° |
| 2026-05-05 00:44 | 26.32120 | 127.60187 | 5189 ft | 258 kts | 327° |
| 2026-05-05 00:44 | 26.33723 | 127.59166 | 5743 ft | 270 kts | 327° |
| 2026-05-05 00:44 | 26.35371 | 127.58117 | 6489 ft | 275 kts | 327° |
| 2026-05-05 00:44 | 26.37040 | 127.57054 | 7219 ft | 278 kts | 326° |
| 2026-05-05 00:45 | 26.38721 | 127.55967 | 7946 ft | 280 kts | 323° |
| 2026-05-05 00:45 | 26.40171 | 127.54555 | 8659 ft | 275 kts | 303° |
| 2026-05-05 00:45 | 26.41004 | 127.52674 | 9369 ft | 270 kts | 280° |
| 2026-05-05 00:45 | 26.41106 | 127.50608 | 10068 ft | 268 kts | 259° |
| 2026-05-05 00:46 | 26.40487 | 127.48612 | 10405 ft | 282 kts | 239° |
| 2026-05-05 00:46 | 26.39234 | 127.46837 | 10660 ft | 301 kts | 230° |
| 2026-05-05 00:46 | 26.37780 | 127.45063 | 10912 ft | 318 kts | 229° |
| 2026-05-05 00:46 | 26.36239 | 127.43240 | 11348 ft | 328 kts | 225° |
| 2026-05-05 00:47 | 26.34374 | 127.41740 | 11940 ft | 335 kts | 210° |
| 2026-05-05 00:47 | 26.32143 | 127.40907 | 12575 ft | 345 kts | 193° |
| 2026-05-05 00:47 | 26.29717 | 127.40784 | 13229 ft | 352 kts | 184° |
| 2026-05-05 00:47 | 26.27258 | 127.40857 | 13880 ft | 355 kts | 184° |
| 2026-05-05 00:48 | 26.24778 | 127.40928 | 14427 ft | 358 kts | 184° |
| 2026-05-05 00:48 | 26.22276 | 127.40977 | 14962 ft | 361 kts | 184° |
| 2026-05-05 00:48 | 26.19752 | 127.41014 | 15471 ft | 365 kts | 184° |
| 2026-05-05 00:48 | 26.17199 | 127.41261 | 15978 ft | 375 kts | 174° |
| 2026-05-05 00:49 | 26.14688 | 127.42187 | 16475 ft | 388 kts | 159° |
| 2026-05-05 00:49 | 26.12415 | 127.43888 | 16976 ft | 402 kts | 143° |
| 2026-05-05 00:49 | 26.10597 | 127.46299 | 17462 ft | 415 kts | 126° |
| 2026-05-05 00:49 | 26.09432 | 127.49273 | 17928 ft | 425 kts | 108° |
| 2026-05-05 00:50 | 26.09076 | 127.52512 | 18407 ft | 433 kts | 90° |
| 2026-05-05 00:50 | 26.09499 | 127.55837 | 18832 ft | 437 kts | 78° |
| 2026-05-05 00:50 | 26.10170 | 127.59147 | 19313 ft | 441 kts | 77° |
| 2026-05-05 00:50 | 26.10842 | 127.62490 | 19809 ft | 445 kts | 78° |
| 2026-05-05 00:51 | 26.11489 | 127.65871 | 20307 ft | 448 kts | 79° |
| 2026-05-05 00:51 | 26.12119 | 127.69268 | 20754 ft | 449 kts | 79° |
| 2026-05-05 00:51 | 26.12742 | 127.72686 | 21167 ft | 452 kts | 80° |
| 2026-05-05 00:51 | 26.13371 | 127.76139 | 21497 ft | 457 kts | 79° |
| 2026-05-05 00:52 | 26.14002 | 127.79620 | 21870 ft | 461 kts | 80° |
| 2026-05-05 00:52 | 26.14636 | 127.83134 | 22240 ft | 464 kts | 80° |
| 2026-05-05 00:52 | 26.15270 | 127.86669 | 22616 ft | 467 kts | 80° |
| 2026-05-05 00:52 | 26.15981 | 127.90210 | 22967 ft | 471 kts | 75° |
| 2026-05-05 00:53 | 26.17226 | 127.93593 | 23313 ft | 475 kts | 60° |
| 2026-05-05 00:53 | 26.19130 | 127.96588 | 23641 ft | 475 kts | 46° |
| 2026-05-05 00:53 | 26.21596 | 127.99008 | 23937 ft | 473 kts | 31° |
| 2026-05-05 00:53 | 26.24385 | 128.00943 | 24232 ft | 472 kts | 27° |
| 2026-05-05 00:54 | 26.27222 | 128.02806 | 24534 ft | 475 kts | 27° |
| 2026-05-05 00:54 | 26.30072 | 128.04696 | 24827 ft | 478 kts | 26° |
| 2026-05-05 00:54 | 26.32928 | 128.06610 | 25083 ft | 481 kts | 26° |
| 2026-05-05 00:54 | 26.35800 | 128.08541 | 25352 ft | 483 kts | 26° |
| 2026-05-05 00:55 | 26.38690 | 128.10488 | 25642 ft | 487 kts | 27° |
| 2026-05-05 00:55 | 26.41587 | 128.12448 | 25937 ft | 489 kts | 26° |
| 2026-05-05 00:55 | 26.44502 | 128.14428 | 26250 ft | 492 kts | 26° |
| 2026-05-05 00:55 | 26.47429 | 128.16419 | 26590 ft | 495 kts | 26° |
| 2026-05-05 00:56 | 26.50376 | 128.18427 | 26871 ft | 497 kts | 26° |
| 2026-05-05 00:56 | 26.53328 | 128.20436 | 27135 ft | 498 kts | 26° |
| 2026-05-05 00:56 | 26.56251 | 128.22427 | 27390 ft | 500 kts | 26° |
| 2026-05-05 00:56 | 26.59226 | 128.24454 | 27650 ft | 501 kts | 26° |
| 2026-05-05 00:57 | 26.62246 | 128.26512 | 27899 ft | 503 kts | 26° |
| 2026-05-05 00:57 | 26.65242 | 128.28552 | 28157 ft | 505 kts | 26° |
| 2026-05-05 00:57 | 26.68154 | 128.30791 | 28387 ft | 513 kts | 35° |
| 2026-05-05 00:57 | 26.70655 | 128.33606 | 28586 ft | 521 kts | 47° |
| 2026-05-05 00:58 | 26.72925 | 128.36774 | 28865 ft | 523 kts | 49° |
| 2026-05-05 00:58 | 26.75160 | 128.39983 | 29169 ft | 523 kts | 49° |
| 2026-05-05 00:58 | 26.77400 | 128.43183 | 29465 ft | 523 kts | 49° |
| 2026-05-05 00:58 | 26.79655 | 128.46378 | 29779 ft | 523 kts | 49° |
| 2026-05-05 00:59 | 26.81914 | 128.49562 | 30073 ft | 522 kts | 49° |
| 2026-05-05 00:59 | 26.84173 | 128.52749 | 30351 ft | 522 kts | 49° |
| 2026-05-05 00:59 | 26.86434 | 128.55940 | 30547 ft | 524 kts | 49° |
| 2026-05-05 00:59 | 26.88696 | 128.59134 | 30756 ft | 524 kts | 49° |
| 2026-05-05 01:00 | 26.90966 | 128.62337 | 30974 ft | 525 kts | 49° |
| 2026-05-05 01:00 | 26.93234 | 128.65539 | 31180 ft | 525 kts | 49° |
| 2026-05-05 01:00 | 26.95505 | 128.68746 | 31352 ft | 526 kts | 49° |
| 2026-05-05 01:00 | 26.97782 | 128.71961 | 31540 ft | 527 kts | 49° |
| 2026-05-05 01:01 | 27.00059 | 128.75179 | 31765 ft | 527 kts | 48° |
| 2026-05-05 01:01 | 27.02332 | 128.78407 | 31983 ft | 527 kts | 48° |
| 2026-05-05 01:01 | 27.03834 | 128.80547 | 32126 ft | 527 kts | 48° |
| 2026-05-05 01:01 | 27.06098 | 128.83780 | 32320 ft | 527 kts | 48° |
| 2026-05-05 01:02 | 27.08358 | 128.87019 | 32513 ft | 527 kts | 48° |
| 2026-05-05 01:02 | 27.11380 | 128.91358 | 32761 ft | 528 kts | 49° |
| 2026-05-05 01:02 | 27.12875 | 128.93505 | 32862 ft | 528 kts | 48° |
| 2026-05-05 01:02 | 27.15136 | 128.96757 | 33031 ft | 528 kts | 48° |
| 2026-05-05 01:03 | 27.17393 | 129.00009 | 33220 ft | 526 kts | 48° |
| 2026-05-05 01:03 | 27.21843 | 129.06479 | 33207 ft | 522 kts | 48° |
| 2026-05-05 01:04 | 27.26282 | 129.12944 | 33155 ft | 523 kts | 48° |
| 2026-05-05 01:04 | 27.33036 | 129.22629 | 33195 ft | 520 kts | 42° |
| 2026-05-05 01:05 | 27.35712 | 129.25282 | 33201 ft | 507 kts | 28° |
| 2026-05-05 01:05 | 27.38744 | 129.27185 | 33187 ft | 494 kts | 14° |
| 2026-05-05 01:05 | 27.41975 | 129.28289 | 33178 ft | 479 kts | 1° |
| 2026-05-05 01:05 | 27.45234 | 129.28615 | 33177 ft | 463 kts | 349° |
| 2026-05-05 01:06 | 27.48382 | 129.28234 | 33173 ft | 448 kts | 338° |
| 2026-05-05 01:06 | 27.51316 | 129.27233 | 33172 ft | 434 kts | 327° |
| 2026-05-05 01:06 | 27.53944 | 129.25678 | 33176 ft | 421 kts | 317° |
| 2026-05-05 01:06 | 27.56220 | 129.23679 | 33180 ft | 410 kts | 308° |
| 2026-05-05 01:07 | 27.59619 | 129.18719 | 33181 ft | 395 kts | 292° |
| 2026-05-05 01:07 | 27.62265 | 129.13288 | 33177 ft | 395 kts | 292° |
| 2026-05-05 01:08 | 27.64928 | 129.07872 | 33176 ft | 400 kts | 291° |
| 2026-05-05 01:08 | 27.67645 | 129.02394 | 33176 ft | 401 kts | 292° |
| 2026-05-05 01:09 | 27.70384 | 128.96917 | 33178 ft | 401 kts | 292° |
| 2026-05-05 01:09 | 27.73106 | 128.91433 | 33176 ft | 400 kts | 291° |
| 2026-05-05 01:10 | 27.75823 | 128.85951 | 33182 ft | 400 kts | 291° |
| 2026-05-05 01:10 | 27.78540 | 128.80465 | 33177 ft | 400 kts | 291° |
| 2026-05-05 01:11 | 27.81251 | 128.74973 | 33170 ft | 400 kts | 291° |
| 2026-05-05 01:11 | 27.83952 | 128.69481 | 33173 ft | 400 kts | 291° |
| 2026-05-05 01:12 | 27.86673 | 128.64000 | 33189 ft | 398 kts | 291° |
| 2026-05-05 01:12 | 27.89470 | 128.58611 | 33174 ft | 403 kts | 296° |
| 2026-05-05 01:13 | 27.91281 | 128.56143 | 33173 ft | 414 kts | 304° |
| 2026-05-05 01:13 | 27.93488 | 128.53991 | 33173 ft | 426 kts | 314° |
| 2026-05-05 01:13 | 27.96071 | 128.52236 | 33173 ft | 440 kts | 323° |
| 2026-05-05 01:13 | 27.98970 | 128.50962 | 33174 ft | 453 kts | 332° |
| 2026-05-05 01:14 | 28.05040 | 128.48958 | 33197 ft | 454 kts | 333° |
| 2026-05-05 01:14 | 28.11102 | 128.46930 | 33176 ft | 453 kts | 332° |
| 2026-05-05 01:15 | 28.17103 | 128.44884 | 33171 ft | 450 kts | 332° |
| 2026-05-05 01:15 | 28.23096 | 128.42836 | 33175 ft | 450 kts | 332° |
| 2026-05-05 01:16 | 28.29091 | 128.40789 | 33192 ft | 450 kts | 332° |
| 2026-05-05 01:16 | 28.35093 | 128.38731 | 33177 ft | 451 kts | 332° |
| 2026-05-05 01:17 | 28.41098 | 128.36669 | 33172 ft | 451 kts | 332° |
| 2026-05-05 01:17 | 28.47059 | 128.34625 | 33178 ft | 451 kts | 332° |
| 2026-05-05 01:18 | 28.53059 | 128.32558 | 33174 ft | 450 kts | 332° |
| 2026-05-05 01:18 | 28.59034 | 128.30510 | 33199 ft | 447 kts | 332° |
| 2026-05-05 01:19 | 28.64990 | 128.28457 | 33182 ft | 447 kts | 332° |
| 2026-05-05 01:19 | 28.70950 | 128.26402 | 33178 ft | 447 kts | 332° |
| 2026-05-05 01:20 | 28.76918 | 128.24340 | 33479 ft | 448 kts | 332° |
| 2026-05-05 01:20 | 28.79898 | 128.23309 | 33712 ft | 447 kts | 332° |
| 2026-05-05 01:20 | 28.82874 | 128.22277 | 33971 ft | 446 kts | 332° |
| 2026-05-05 01:21 | 28.85844 | 128.21248 | 34186 ft | 446 kts | 332° |
| 2026-05-05 01:21 | 28.88809 | 128.20224 | 34359 ft | 445 kts | 332° |
| 2026-05-05 01:21 | 28.91775 | 128.19198 | 34507 ft | 445 kts | 332° |
| 2026-05-05 01:21 | 28.94742 | 128.18167 | 34655 ft | 446 kts | 332° |
| 2026-05-05 01:22 | 28.97711 | 128.17134 | 34778 ft | 447 kts | 332° |
| 2026-05-05 01:22 | 29.00687 | 128.16101 | 34910 ft | 447 kts | 332° |
| 2026-05-05 01:22 | 29.03649 | 128.15037 | 35044 ft | 445 kts | 330° |
| 2026-05-05 01:22 | 29.06594 | 128.13935 | 35183 ft | 446 kts | 330° |
| 2026-05-05 01:23 | 29.12506 | 128.11714 | 35213 ft | 448 kts | 330° |
| 2026-05-05 01:23 | 29.18421 | 128.09490 | 35198 ft | 447 kts | 330° |
| 2026-05-05 01:24 | 29.24336 | 128.07266 | 35194 ft | 448 kts | 330° |
| 2026-05-05 01:24 | 29.30252 | 128.05043 | 35193 ft | 448 kts | 330° |
| 2026-05-05 01:25 | 29.36176 | 128.02806 | 35203 ft | 449 kts | 330° |
| 2026-05-05 01:25 | 29.42075 | 128.00582 | 35199 ft | 450 kts | 330° |
| 2026-05-05 01:26 | 29.48018 | 127.98336 | 35197 ft | 450 kts | 330° |
| 2026-05-05 01:26 | 29.53961 | 127.96089 | 35196 ft | 450 kts | 330° |
| 2026-05-05 01:27 | 29.59899 | 127.93838 | 35243 ft | 450 kts | 329° |
| 2026-05-05 01:27 | 29.65841 | 127.91583 | 35211 ft | 449 kts | 329° |
| 2026-05-05 01:28 | 29.71779 | 127.89326 | 35203 ft | 449 kts | 329° |
| 2026-05-05 01:28 | 29.77714 | 127.87071 | 35202 ft | 449 kts | 329° |
| 2026-05-05 01:29 | 29.83645 | 127.84810 | 35206 ft | 449 kts | 329° |
| 2026-05-05 01:29 | 29.89641 | 127.82696 | 35219 ft | 452 kts | 331° |
| 2026-05-05 01:30 | 29.95699 | 127.80737 | 35210 ft | 452 kts | 331° |
| 2026-05-05 01:30 | 30.01725 | 127.78789 | 35212 ft | 453 kts | 331° |
| 2026-05-05 01:31 | 30.07790 | 127.76824 | 35203 ft | 452 kts | 331° |
| 2026-05-05 01:31 | 30.13844 | 127.74856 | 35224 ft | 452 kts | 331° |
| 2026-05-05 01:32 | 30.19891 | 127.72879 | 35213 ft | 452 kts | 331° |
| 2026-05-05 01:32 | 30.25948 | 127.70908 | 35228 ft | 452 kts | 331° |
| 2026-05-05 01:33 | 30.32007 | 127.68936 | 35213 ft | 452 kts | 331° |
| 2026-05-05 01:33 | 30.38056 | 127.66957 | 35210 ft | 452 kts | 331° |
| 2026-05-05 01:34 | 30.44109 | 127.64976 | 35210 ft | 452 kts | 331° |
| 2026-05-05 01:34 | 30.50159 | 127.62993 | 35210 ft | 452 kts | 331° |
| 2026-05-05 01:35 | 30.56204 | 127.61010 | 35213 ft | 452 kts | 331° |
| 2026-05-05 01:35 | 30.62258 | 127.59021 | 35237 ft | 451 kts | 331° |
| 2026-05-05 01:36 | 30.68286 | 127.57037 | 35218 ft | 450 kts | 331° |
| 2026-05-05 01:36 | 30.74316 | 127.55054 | 35214 ft | 450 kts | 331° |
| 2026-05-05 01:37 | 30.80346 | 127.53067 | 35213 ft | 450 kts | 331° |
| 2026-05-05 01:37 | 30.86371 | 127.51075 | 35259 ft | 450 kts | 331° |
| 2026-05-05 01:38 | 30.92364 | 127.49093 | 35228 ft | 447 kts | 331° |
| 2026-05-05 01:38 | 30.98355 | 127.47109 | 35241 ft | 447 kts | 331° |
| 2026-05-05 01:39 | 31.04350 | 127.45123 | 35221 ft | 448 kts | 331° |
| 2026-05-05 01:39 | 31.10324 | 127.43137 | 35215 ft | 446 kts | 330° |
| 2026-05-05 01:40 | 31.16317 | 127.41145 | 35226 ft | 449 kts | 330° |
| 2026-05-05 01:40 | 31.22290 | 127.39158 | 35217 ft | 449 kts | 330° |
| 2026-05-05 01:41 | 31.28303 | 127.37159 | 35215 ft | 450 kts | 331° |
| 2026-05-05 01:41 | 31.34333 | 127.35181 | 35216 ft | 450 kts | 331° |
| 2026-05-05 01:42 | 31.40354 | 127.33196 | 35238 ft | 450 kts | 330° |
| 2026-05-05 01:42 | 31.46381 | 127.31208 | 35224 ft | 450 kts | 330° |
| 2026-05-05 01:43 | 31.52401 | 127.29212 | 35221 ft | 450 kts | 331° |
| 2026-05-05 01:43 | 31.58435 | 127.27217 | 35220 ft | 450 kts | 330° |
| 2026-05-05 01:44 | 31.64460 | 127.25221 | 35238 ft | 449 kts | 330° |
| 2026-05-05 01:44 | 31.70465 | 127.23223 | 35238 ft | 449 kts | 330° |
| 2026-05-05 01:45 | 31.76474 | 127.21228 | 35220 ft | 449 kts | 331° |
| 2026-05-05 01:45 | 31.82481 | 127.19227 | 35216 ft | 448 kts | 330° |
| 2026-05-05 01:46 | 31.88481 | 127.17226 | 35252 ft | 448 kts | 331° |
| 2026-05-05 01:46 | 31.94474 | 127.15225 | 35223 ft | 448 kts | 331° |
| 2026-05-05 01:47 | 32.00467 | 127.13224 | 35217 ft | 448 kts | 331° |
| 2026-05-05 01:47 | 32.06455 | 127.11220 | 35215 ft | 447 kts | 331° |
| 2026-05-05 01:48 | 32.12445 | 127.09208 | 35230 ft | 447 kts | 332° |
| 2026-05-05 01:48 | 32.18433 | 127.07196 | 35223 ft | 447 kts | 331° |
| 2026-05-05 01:49 | 32.24373 | 127.05194 | 35213 ft | 447 kts | 331° |
| 2026-05-05 01:49 | 32.30395 | 127.03171 | 35212 ft | 447 kts | 332° |
| 2026-05-05 01:50 | 32.35367 | 127.01504 | 35260 ft | 447 kts | 332° |
| 2026-05-05 01:50 | 32.41346 | 126.99498 | 35231 ft | 446 kts | 332° |
| 2026-05-05 01:51 | 32.47322 | 126.97495 | 35223 ft | 449 kts | 334° |
| 2026-05-05 01:51 | 32.50482 | 126.96987 | 35216 ft | 469 kts | 348° |
| 2026-05-05 01:51 | 32.54819 | 126.97000 | 35219 ft | 472 kts | 350° |
| 2026-05-05 01:52 | 32.60313 | 126.97061 | 35236 ft | 470 kts | 350° |
| 2026-05-05 01:52 | 32.66839 | 126.97045 | 35220 ft | 468 kts | 349° |
| 2026-05-05 01:53 | 32.73356 | 126.96999 | 35218 ft | 468 kts | 349° |
| 2026-05-05 01:53 | 32.79873 | 126.96955 | 35216 ft | 468 kts | 349° |
| 2026-05-05 01:54 | 32.86393 | 126.96914 | 35216 ft | 468 kts | 349° |
| 2026-05-05 01:54 | 32.92910 | 126.96872 | 35215 ft | 468 kts | 349° |
| 2026-05-05 01:55 | 32.99431 | 126.96830 | 35216 ft | 469 kts | 349° |
| 2026-05-05 01:55 | 33.05900 | 126.96790 | 35226 ft | 467 kts | 350° |
| 2026-05-05 01:56 | 33.12403 | 126.96748 | 35216 ft | 467 kts | 350° |
| 2026-05-05 01:56 | 33.18906 | 126.96706 | 35215 ft | 467 kts | 350° |
| 2026-05-05 01:57 | 33.25408 | 126.96665 | 35234 ft | 466 kts | 351° |
| 2026-05-05 01:57 | 33.31899 | 126.96624 | 35218 ft | 466 kts | 351° |
| 2026-05-05 01:58 | 33.38386 | 126.96582 | 35211 ft | 466 kts | 351° |
| 2026-05-05 01:58 | 33.44877 | 126.96540 | 35235 ft | 466 kts | 351° |
| 2026-05-05 01:59 | 33.51362 | 126.96498 | 35219 ft | 466 kts | 351° |
| 2026-05-05 01:59 | 33.57839 | 126.96456 | 35218 ft | 466 kts | 351° |
| 2026-05-05 02:00 | 33.64322 | 126.96414 | 35209 ft | 466 kts | 351° |
| 2026-05-05 02:00 | 33.70795 | 126.96374 | 35224 ft | 464 kts | 352° |
| 2026-05-05 02:01 | 33.77259 | 126.96331 | 35210 ft | 464 kts | 352° |
| 2026-05-05 02:01 | 33.83719 | 126.96289 | 35211 ft | 464 kts | 352° |
| 2026-05-05 02:02 | 33.90169 | 126.96248 | 35226 ft | 462 kts | 352° |
| 2026-05-05 02:02 | 33.96599 | 126.96207 | 35213 ft | 462 kts | 352° |
| 2026-05-05 02:03 | 34.03028 | 126.96164 | 35209 ft | 462 kts | 352° |
| 2026-05-05 02:03 | 34.09453 | 126.96121 | 35227 ft | 461 kts | 353° |
| 2026-05-05 02:04 | 34.15856 | 126.96080 | 35211 ft | 460 kts | 353° |
| 2026-05-05 02:04 | 34.22261 | 126.96039 | 35204 ft | 460 kts | 353° |
| 2026-05-05 02:05 | 34.28662 | 126.95996 | 35204 ft | 460 kts | 353° |
| 2026-05-05 02:05 | 34.35060 | 126.95954 | 35207 ft | 460 kts | 353° |
| 2026-05-05 02:06 | 34.41456 | 126.95914 | 35199 ft | 459 kts | 353° |
| 2026-05-05 02:06 | 34.47852 | 126.95870 | 35196 ft | 460 kts | 353° |
| 2026-05-05 02:07 | 34.54240 | 126.95828 | 35202 ft | 459 kts | 353° |
| 2026-05-05 02:07 | 34.60628 | 126.95785 | 35194 ft | 459 kts | 353° |
| 2026-05-05 02:08 | 34.67011 | 126.95744 | 35186 ft | 459 kts | 353° |
| 2026-05-05 02:08 | 34.73395 | 126.95702 | 35198 ft | 459 kts | 354° |
| 2026-05-05 02:09 | 34.79771 | 126.95661 | 35190 ft | 458 kts | 354° |
| 2026-05-05 02:09 | 34.86149 | 126.95616 | 35222 ft | 460 kts | 354° |
| 2026-05-05 02:10 | 34.92528 | 126.95574 | 35190 ft | 458 kts | 354° |
| 2026-05-05 02:10 | 34.98904 | 126.95533 | 35181 ft | 458 kts | 354° |
| 2026-05-05 02:11 | 35.05276 | 126.95492 | 35180 ft | 458 kts | 354° |
| 2026-05-05 02:11 | 35.11649 | 126.95448 | 35142 ft | 458 kts | 354° |
| 2026-05-05 02:12 | 35.14826 | 126.95427 | 34933 ft | 455 kts | 354° |
| 2026-05-05 02:12 | 35.21135 | 126.95383 | 34296 ft | 452 kts | 354° |
| 2026-05-05 02:12 | 35.24280 | 126.95361 | 33909 ft | 452 kts | 354° |
| 2026-05-05 02:13 | 35.27420 | 126.95341 | 33505 ft | 451 kts | 355° |
| 2026-05-05 02:13 | 35.30555 | 126.95320 | 33114 ft | 450 kts | 355° |
| 2026-05-05 02:13 | 35.33683 | 126.95299 | 32730 ft | 449 kts | 355° |
| 2026-05-05 02:13 | 35.36806 | 126.95277 | 32337 ft | 448 kts | 355° |
| 2026-05-05 02:14 | 35.39918 | 126.95257 | 31953 ft | 447 kts | 355° |
| 2026-05-05 02:14 | 35.43025 | 126.95235 | 31577 ft | 446 kts | 355° |
| 2026-05-05 02:14 | 35.46128 | 126.95215 | 31203 ft | 446 kts | 355° |
| 2026-05-05 02:14 | 35.49191 | 126.95195 | 30834 ft | 446 kts | 355° |
| 2026-05-05 02:15 | 35.52343 | 126.95176 | 30505 ft | 448 kts | 355° |
| 2026-05-05 02:15 | 35.55413 | 126.95154 | 30148 ft | 448 kts | 356° |
| 2026-05-05 02:15 | 35.58533 | 126.95132 | 29729 ft | 449 kts | 356° |
| 2026-05-05 02:15 | 35.61656 | 126.95118 | 29312 ft | 449 kts | 356° |
| 2026-05-05 02:16 | 35.64775 | 126.95101 | 28897 ft | 447 kts | 356° |
| 2026-05-05 02:16 | 35.67880 | 126.95078 | 28490 ft | 444 kts | 356° |
| 2026-05-05 02:16 | 35.70944 | 126.95053 | 28082 ft | 437 kts | 356° |
| 2026-05-05 02:16 | 35.73960 | 126.95035 | 27693 ft | 429 kts | 357° |
| 2026-05-05 02:17 | 35.76910 | 126.95018 | 27307 ft | 419 kts | 356° |
| 2026-05-05 02:17 | 35.79806 | 126.94996 | 27159 ft | 415 kts | 356° |
| 2026-05-05 02:17 | 35.82689 | 126.94979 | 27145 ft | 414 kts | 357° |
| 2026-05-05 02:17 | 35.85570 | 126.94964 | 27152 ft | 414 kts | 356° |
| 2026-05-05 02:18 | 35.88450 | 126.94947 | 27173 ft | 414 kts | 357° |
| 2026-05-05 02:18 | 35.91335 | 126.95119 | 27178 ft | 416 kts | 2° |
| 2026-05-05 02:18 | 35.94215 | 126.95430 | 27181 ft | 414 kts | 2° |
| 2026-05-05 02:18 | 35.97084 | 126.95756 | 27177 ft | 414 kts | 3° |
| 2026-05-05 02:19 | 35.99952 | 126.96082 | 27176 ft | 414 kts | 2° |
| 2026-05-05 02:19 | 36.02821 | 126.96405 | 27171 ft | 414 kts | 2° |
| 2026-05-05 02:19 | 36.05690 | 126.96723 | 27171 ft | 414 kts | 2° |
| 2026-05-05 02:19 | 36.08554 | 126.97040 | 27140 ft | 411 kts | 2° |
| 2026-05-05 02:20 | 36.11406 | 126.97355 | 26767 ft | 415 kts | 2° |
| 2026-05-05 02:20 | 36.14282 | 126.97674 | 26485 ft | 414 kts | 4° |
| 2026-05-05 02:20 | 36.17144 | 126.97991 | 26223 ft | 412 kts | 4° |
| 2026-05-05 02:20 | 36.19994 | 126.98309 | 25969 ft | 411 kts | 4° |
| 2026-05-05 02:21 | 36.22836 | 126.98624 | 25723 ft | 409 kts | 4° |
| 2026-05-05 02:21 | 36.25667 | 126.98938 | 25479 ft | 408 kts | 3° |
| 2026-05-05 02:21 | 36.28496 | 126.99258 | 25223 ft | 412 kts | 359° |
| 2026-05-05 02:21 | 36.31350 | 126.99562 | 24997 ft | 408 kts | 4° |
| 2026-05-05 02:22 | 36.34160 | 126.99872 | 24758 ft | 404 kts | 4° |
| 2026-05-05 02:22 | 36.36957 | 127.00178 | 24521 ft | 403 kts | 4° |
| 2026-05-05 02:22 | 36.39747 | 127.00362 | 24280 ft | 400 kts | 358° |
| 2026-05-05 02:22 | 36.42526 | 127.00277 | 24047 ft | 399 kts | 356° |
| 2026-05-05 02:23 | 36.45296 | 127.00161 | 23799 ft | 397 kts | 356° |
| 2026-05-05 02:23 | 36.48054 | 127.00049 | 23363 ft | 396 kts | 357° |
| 2026-05-05 02:23 | 36.50796 | 126.99945 | 22858 ft | 392 kts | 358° |
| 2026-05-05 02:23 | 36.53515 | 126.99844 | 22236 ft | 390 kts | 358° |
| 2026-05-05 02:24 | 36.56225 | 126.99745 | 21599 ft | 389 kts | 358° |
| 2026-05-05 02:24 | 36.58890 | 126.99642 | 21012 ft | 388 kts | 359° |
| 2026-05-05 02:24 | 36.61582 | 126.99545 | 20453 ft | 386 kts | 359° |
| 2026-05-05 02:24 | 36.64255 | 126.99452 | 19917 ft | 382 kts | 357° |
| 2026-05-05 02:25 | 36.66896 | 126.99356 | 19408 ft | 378 kts | 359° |
| 2026-05-05 02:25 | 36.69518 | 126.99260 | 18929 ft | 377 kts | 1° |
| 2026-05-05 02:25 | 36.72125 | 126.98920 | 18463 ft | 377 kts | 349° |
| 2026-05-05 02:25 | 36.74554 | 126.97742 | 18174 ft | 377 kts | 328° |
| 2026-05-05 02:26 | 36.76574 | 126.95676 | 18129 ft | 376 kts | 315° |
| 2026-05-05 02:26 | 36.78366 | 126.93295 | 18132 ft | 376 kts | 312° |
| 2026-05-05 02:26 | 36.80103 | 126.90858 | 18139 ft | 376 kts | 311° |
| 2026-05-05 02:26 | 36.81828 | 126.88414 | 18141 ft | 375 kts | 311° |
| 2026-05-05 02:27 | 36.83548 | 126.85971 | 18144 ft | 375 kts | 311° |
| 2026-05-05 02:27 | 36.85266 | 126.83526 | 18146 ft | 374 kts | 311° |
| 2026-05-05 02:27 | 36.86980 | 126.81087 | 18145 ft | 373 kts | 311° |
| 2026-05-05 02:27 | 36.88691 | 126.78649 | 18146 ft | 373 kts | 311° |
| 2026-05-05 02:28 | 36.90399 | 126.76215 | 18144 ft | 373 kts | 311° |
| 2026-05-05 02:28 | 36.92111 | 126.73777 | 18147 ft | 373 kts | 311° |
| 2026-05-05 02:28 | 36.93817 | 126.71345 | 18147 ft | 373 kts | 311° |
| 2026-05-05 02:28 | 36.95523 | 126.68912 | 18061 ft | 372 kts | 311° |
| 2026-05-05 02:29 | 36.97227 | 126.66483 | 17720 ft | 371 kts | 311° |
| 2026-05-05 02:29 | 36.98929 | 126.64062 | 17338 ft | 370 kts | 311° |
| 2026-05-05 02:29 | 37.00626 | 126.61655 | 16951 ft | 369 kts | 311° |
| 2026-05-05 02:29 | 37.02322 | 126.59255 | 16570 ft | 367 kts | 311° |
| 2026-05-05 02:30 | 37.04014 | 126.56868 | 16190 ft | 366 kts | 311° |
| 2026-05-05 02:30 | 37.05678 | 126.54524 | 15833 ft | 364 kts | 311° |
| 2026-05-05 02:30 | 37.07358 | 126.52164 | 15467 ft | 363 kts | 311° |
| 2026-05-05 02:30 | 37.09036 | 126.49813 | 15104 ft | 361 kts | 311° |
| 2026-05-05 02:31 | 37.10706 | 126.47473 | 14745 ft | 360 kts | 311° |
| 2026-05-05 02:31 | 37.12371 | 126.45142 | 14392 ft | 358 kts | 311° |
| 2026-05-05 02:31 | 37.14030 | 126.42823 | 14045 ft | 357 kts | 311° |
| 2026-05-05 02:31 | 37.15687 | 126.40513 | 13659 ft | 355 kts | 311° |
| 2026-05-05 02:32 | 37.17338 | 126.38215 | 13274 ft | 354 kts | 311° |
| 2026-05-05 02:32 | 37.18985 | 126.35926 | 12859 ft | 353 kts | 311° |
| 2026-05-05 02:32 | 37.20629 | 126.33649 | 12441 ft | 351 kts | 311° |
| 2026-05-05 02:32 | 37.22269 | 126.31382 | 12019 ft | 350 kts | 311° |
| 2026-05-05 02:33 | 37.23904 | 126.29128 | 11614 ft | 348 kts | 311° |
| 2026-05-05 02:33 | 37.25535 | 126.26887 | 11208 ft | 347 kts | 311° |
| 2026-05-05 02:33 | 37.27159 | 126.24663 | 10817 ft | 342 kts | 311° |
| 2026-05-05 02:33 | 37.28754 | 126.22495 | 10404 ft | 334 kts | 311° |
| 2026-05-05 02:34 | 37.30318 | 126.20379 | 10010 ft | 327 kts | 311° |
| 2026-05-05 02:34 | 37.31854 | 126.18310 | 9564 ft | 320 kts | 311° |
| 2026-05-05 02:34 | 37.33357 | 126.16286 | 9146 ft | 313 kts | 311° |
| 2026-05-05 02:34 | 37.34817 | 126.14326 | 8972 ft | 299 kts | 311° |
| 2026-05-05 02:35 | 37.36205 | 126.12473 | 8944 ft | 286 kts | 311° |
| 2026-05-05 02:35 | 37.37567 | 126.10656 | 8951 ft | 286 kts | 311° |
| 2026-05-05 02:35 | 37.38929 | 126.08840 | 8851 ft | 285 kts | 311° |
| 2026-05-05 02:35 | 37.40285 | 126.07034 | 8477 ft | 283 kts | 311° |
| 2026-05-05 02:36 | 37.41636 | 126.05236 | 8019 ft | 282 kts | 311° |
| 2026-05-05 02:36 | 37.42986 | 126.03444 | 7539 ft | 283 kts | 311° |
| 2026-05-05 02:36 | 37.44536 | 126.01919 | 7048 ft | 287 kts | 332° |
| 2026-05-05 02:36 | 37.46471 | 126.01288 | 6556 ft | 292 kts | 355° |
| 2026-05-05 02:37 | 37.48473 | 126.01687 | 6048 ft | 295 kts | 19° |
| 2026-05-05 02:37 | 37.50297 | 126.02867 | 5560 ft | 294 kts | 30° |
| 2026-05-05 02:37 | 37.51445 | 126.03742 | 5248 ft | 289 kts | 31° |
| 2026-05-05 02:37 | 37.53132 | 126.05053 | 4803 ft | 281 kts | 31° |
| 2026-05-05 02:38 | 37.54779 | 126.06329 | 4355 ft | 275 kts | 31° |
| 2026-05-05 02:38 | 37.56398 | 126.07560 | 3922 ft | 269 kts | 30° |
| 2026-05-05 02:38 | 37.57851 | 126.09000 | 3485 ft | 265 kts | 53° |
| 2026-05-05 02:38 | 37.58679 | 126.11019 | 3061 ft | 258 kts | 76° |
| 2026-05-05 02:39 | 37.59120 | 126.13192 | 2632 ft | 254 kts | 81° |
| 2026-05-05 02:39 | 37.59517 | 126.15359 | 2216 ft | 254 kts | 81° |
| 2026-05-05 02:39 | 37.59913 | 126.17509 | 1973 ft | 247 kts | 81° |
| 2026-05-05 02:39 | 37.60281 | 126.19544 | 1925 ft | 227 kts | 89° |
| 2026-05-05 02:40 | 37.60046 | 126.21974 | 1898 ft | 203 kts | 110° |
| 2026-05-05 02:40 | 37.59812 | 126.23098 | 1794 ft | 195 kts | 111° |
| 2026-05-05 02:40 | 37.59478 | 126.24683 | 1663 ft | 181 kts | 111° |
| 2026-05-05 02:40 | 37.59171 | 126.26133 | 1542 ft | 161 kts | 111° |
| 2026-05-05 02:41 | 37.58891 | 126.27464 | 1541 ft | 154 kts | 111° |
| 2026-05-05 02:41 | 37.58624 | 126.28767 | 1560 ft | 154 kts | 111° |
| 2026-05-05 02:41 | 37.58361 | 126.30069 | 1582 ft | 153 kts | 111° |
| 2026-05-05 02:41 | 37.57897 | 126.31244 | 1609 ft | 149 kts | 137° |
| 2026-05-05 02:42 | 37.57143 | 126.32104 | 1611 ft | 145 kts | 146° |
| 2026-05-05 02:42 | 37.56394 | 126.32826 | 1598 ft | 127 kts | 149° |
| 2026-05-05 02:42 | 37.55682 | 126.33475 | 1586 ft | 126 kts | 150° |
| 2026-05-05 02:42 | 37.54964 | 126.34120 | 1582 ft | 127 kts | 151° |
| 2026-05-05 02:43 | 37.54244 | 126.34766 | 1583 ft | 127 kts | 151° |
| 2026-05-05 02:43 | 37.53523 | 126.35410 | 1591 ft | 127 kts | 151° |
| 2026-05-05 02:43 | 37.52795 | 126.36061 | 1515 ft | 129 kts | 151° |
| 2026-05-05 02:43 | 37.52064 | 126.36714 | 1354 ft | 129 kts | 151° |
| 2026-05-05 02:44 | 37.51334 | 126.37367 | 1175 ft | 129 kts | 150° |
| 2026-05-05 02:44 | 37.50610 | 126.38014 | 986 ft | 127 kts | 149° |
| 2026-05-05 02:44 | 37.49886 | 126.38661 | 798 ft | 127 kts | 147° |
| 2026-05-05 02:44 | 37.49161 | 126.39307 | 614 ft | 128 kts | 147° |
| 2026-05-05 02:45 | 37.48445 | 126.39943 | 445 ft | 128 kts | 144° |
| 2026-05-05 02:45 | 37.47735 | 126.40603 | 289 ft | 127 kts | 148° |
| 2026-05-05 02:45 | 37.47001 | 126.41234 | 128 ft | 128 kts | 146° |
| 2026-05-05 02:45 | 37.46276 | 126.41861 | 39 ft | 121 kts | 144° |
| 2026-05-05 02:46 | 37.45729 | 126.42365 | 38 ft | 67 kts | 144° |
| 2026-05-05 02:46 | 37.45469 | 126.42605 | 38 ft | 32 kts | 148° |
| 2026-05-05 02:46 | 37.45347 | 126.42768 | 37 ft | 14 kts | 122° |
| 2026-05-05 02:46 | 37.45301 | 126.42887 | 38 ft | 16 kts | 116° |
| 2026-05-05 02:47 | 37.45256 | 126.43021 | 38 ft | 18 kts | 125° |
| 2026-05-05 02:47 | 37.45164 | 126.43134 | 38 ft | 20 kts | 146° |
| 2026-05-05 02:47 | 37.45074 | 126.43257 | 38 ft | 20 kts | 52° |
| 2026-05-05 02:47 | 37.45146 | 126.43380 | 36 ft | 17 kts | 55° |
| 2026-05-05 02:48 | 37.45216 | 126.43504 | 38 ft | 14 kts | 54° |
| 2026-05-05 02:48 | 37.45261 | 126.43583 | 38 ft | 0 kts | 54° |
| 2026-05-05 02:49 | 37.45265 | 126.43590 | 38 ft | 3 kts | 54° |
| 2026-05-05 02:49 | 37.45291 | 126.43595 | 38 ft | 6 kts | 333° |
| 2026-05-05 02:49 | 37.45330 | 126.43562 | 38 ft | 8 kts | 324° |
| 2026-05-05 02:49 | 37.45382 | 126.43515 | 38 ft | 10 kts | 324° |
| 2026-05-05 02:50 | 37.45448 | 126.43455 | 37 ft | 13 kts | 325° |
| 2026-05-05 02:50 | 37.45524 | 126.43388 | 38 ft | 14 kts | 326° |
| 2026-05-05 02:50 | 37.45607 | 126.43314 | 37 ft | 15 kts | 324° |
| 2026-05-05 02:50 | 37.45697 | 126.43236 | 38 ft | 16 kts | 325° |
| 2026-05-05 02:51 | 37.45790 | 126.43179 | 38 ft | 13 kts | 17° |
| 2026-05-05 02:51 | 37.45851 | 126.43263 | 38 ft | 14 kts | 54° |
| 2026-05-05 02:51 | 37.45909 | 126.43366 | 38 ft | 15 kts | 55° |
| 2026-05-05 02:51 | 37.45972 | 126.43476 | 38 ft | 16 kts | 55° |
| 2026-05-05 02:52 | 37.46038 | 126.43594 | 38 ft | 17 kts | 55° |
| 2026-05-05 02:52 | 37.46105 | 126.43713 | 38 ft | 14 kts | 51° |
| 2026-05-05 02:52 | 37.46194 | 126.43697 | 36 ft | 15 kts | 324° |
| 2026-05-05 02:52 | 37.46284 | 126.43617 | 38 ft | 16 kts | 324° |
| 2026-05-05 02:53 | 37.46380 | 126.43532 | 38 ft | 17 kts | 324° |
| 2026-05-05 02:53 | 37.46448 | 126.43466 | 38 ft | 11 kts | 291° |
| 2026-05-05 02:53 | 37.46440 | 126.43395 | 38 ft | 1 kts | 259° |
| 2026-05-05 02:53 | 37.46439 | 126.43381 | 38 ft | 2 kts | 258° |
| 2026-05-05 02:54 | 37.46435 | 126.43358 | 38 ft | 3 kts | 259° |
| 2026-05-05 02:54 | 37.46433 | 126.43344 | 37 ft | 0 kts | 259° |